createdAt,value
2023-04-28T00:00:51.773Z,432.00
2023-04-28T00:01:51.775Z,400.00
2023-04-28T00:02:51.917Z,400.00
2023-04-28T00:03:51.957Z,400.00
2023-04-28T00:04:52.220Z,404.00
2023-04-28T00:05:51.865Z,421.00
2023-04-28T00:06:51.740Z,448.00
2023-04-28T00:07:51.727Z,470.00
2023-04-28T00:08:51.779Z,502.00
2023-04-28T00:09:52.435Z,501.00
2023-04-28T00:10:51.914Z,500.00
2023-04-28T00:11:51.948Z,501.00
2023-04-28T00:12:52.000Z,500.00
2023-04-28T00:13:52.067Z,500.00
2023-04-28T00:14:52.104Z,500.00
2023-04-28T00:15:52.171Z,500.00
2023-04-28T00:16:52.384Z,501.00
2023-04-28T00:17:52.351Z,501.00
2023-04-28T00:18:52.341Z,500.00
2023-04-28T00:19:52.403Z,501.00
2023-04-28T00:20:52.452Z,500.00
2023-04-28T00:21:52.509Z,500.00
2023-04-28T00:22:52.569Z,500.00
2023-04-28T00:23:52.650Z,500.00
2023-04-28T00:24:52.695Z,500.00
2023-04-28T00:25:52.748Z,501.00
2023-04-28T00:26:52.820Z,501.00
2023-04-28T00:27:52.833Z,500.00
2023-04-28T00:28:52.879Z,500.00
2023-04-28T00:29:52.933Z,502.00
2023-04-28T00:30:52.973Z,500.00
2023-04-28T00:31:53.067Z,501.00
2023-04-28T00:32:53.166Z,500.00
2023-04-28T00:33:53.143Z,500.00
2023-04-28T00:34:53.207Z,501.00
2023-04-28T00:35:53.261Z,501.00
2023-04-28T00:36:53.313Z,500.00
2023-04-28T00:37:53.368Z,500.00
2023-04-28T00:38:53.430Z,500.00
2023-04-28T00:39:53.491Z,502.00
2023-04-28T00:40:53.546Z,501.00
2023-04-28T00:41:53.604Z,501.00
2023-04-28T00:42:53.686Z,506.00
2023-04-28T00:43:53.718Z,500.00
2023-04-28T00:44:53.785Z,502.00
2023-04-28T00:45:53.872Z,503.00
2023-04-28T00:46:53.884Z,501.00
2023-04-28T00:47:53.934Z,501.00
2023-04-28T00:48:53.993Z,500.00
2023-04-28T00:49:54.041Z,503.00
2023-04-28T00:50:54.077Z,500.00
2023-04-28T00:51:54.135Z,501.00
2023-04-28T00:52:54.186Z,500.00
2023-04-28T00:53:54.253Z,501.00
2023-04-28T00:54:54.309Z,500.00
2023-04-28T00:55:54.388Z,501.00
2023-04-28T00:56:54.414Z,503.00
2023-04-28T00:57:54.489Z,500.00
2023-04-28T00:58:54.578Z,502.00
2023-04-28T00:59:54.609Z,501.00
2023-04-28T01:00:54.688Z,505.00
2023-04-28T01:01:54.712Z,505.00
2023-04-28T01:02:54.884Z,504.00
2023-04-28T01:03:54.987Z,505.00
2023-04-28T01:04:54.881Z,504.00
2023-04-28T01:05:54.940Z,503.00
2023-04-28T01:06:55.009Z,502.00
2023-04-28T01:07:55.074Z,504.00
2023-04-28T01:08:55.123Z,501.00
2023-04-28T01:09:55.176Z,500.00
2023-04-28T01:10:55.218Z,502.00
2023-04-28T01:11:55.268Z,502.00
2023-04-28T01:12:55.330Z,504.00
2023-04-28T01:13:55.368Z,500.00
2023-04-28T01:14:55.449Z,503.00
2023-04-28T01:15:55.482Z,501.00
2023-04-28T01:16:55.746Z,503.00
2023-04-28T01:17:55.652Z,500.00
2023-04-28T01:18:55.642Z,501.00
2023-04-28T01:19:55.696Z,505.00
2023-04-28T01:20:55.765Z,506.00
2023-04-28T01:21:55.822Z,503.00
2023-04-28T01:22:55.885Z,502.00
2023-04-28T01:23:55.938Z,503.00
2023-04-28T01:24:55.996Z,501.00
2023-04-28T01:25:56.063Z,504.00
2023-04-28T01:26:56.116Z,502.00
2023-04-28T01:27:56.171Z,503.00
2023-04-28T01:28:56.245Z,501.00
2023-04-28T01:29:56.286Z,500.00
2023-04-28T01:30:56.370Z,500.00
2023-04-28T01:31:56.543Z,504.00
2023-04-28T01:32:56.464Z,506.00
2023-04-28T01:33:56.513Z,505.00
2023-04-28T01:34:56.599Z,503.00
2023-04-28T01:35:56.640Z,503.00
2023-04-28T01:36:56.701Z,503.00
2023-04-28T01:37:56.789Z,503.00
2023-04-28T01:38:56.834Z,502.00
2023-04-28T01:39:56.884Z,501.00
2023-04-28T01:40:56.951Z,503.00
2023-04-28T01:41:56.998Z,501.00
2023-04-28T01:42:57.048Z,503.00
2023-04-28T01:43:57.112Z,502.00
2023-04-28T01:44:57.165Z,504.00
2023-04-28T01:45:57.274Z,504.00
2023-04-28T01:46:57.317Z,504.00
2023-04-28T01:47:57.463Z,501.00
2023-04-28T01:48:57.390Z,502.00
2023-04-28T01:49:57.456Z,502.00
2023-04-28T01:50:57.541Z,502.00
2023-04-28T01:51:57.584Z,501.00
2023-04-28T01:52:57.633Z,502.00
2023-04-28T01:53:57.677Z,505.00
2023-04-28T01:54:57.733Z,504.00
2023-04-28T01:55:57.802Z,502.00
2023-04-28T01:56:57.865Z,503.00
2023-04-28T01:57:57.908Z,504.00
2023-04-28T01:58:57.964Z,505.00
2023-04-28T01:59:58.019Z,503.00
2023-04-28T02:00:58.084Z,501.00
2023-04-28T02:01:58.190Z,500.00
2023-04-28T02:02:58.379Z,504.00
2023-04-28T02:03:58.367Z,500.00
2023-04-28T02:04:58.424Z,502.00
2023-04-28T02:05:58.375Z,501.00
2023-04-28T02:06:58.422Z,503.00
2023-04-28T02:07:58.474Z,500.00
2023-04-28T02:08:58.525Z,502.00
2023-04-28T02:09:58.598Z,501.00
2023-04-28T02:10:58.638Z,503.00
2023-04-28T02:11:58.703Z,502.00
2023-04-28T02:12:58.769Z,501.00
2023-04-28T02:13:58.817Z,501.00
2023-04-28T02:14:58.871Z,502.00
2023-04-28T02:15:58.956Z,502.00
2023-04-28T02:16:58.988Z,504.00
2023-04-28T02:17:59.100Z,500.00
2023-04-28T02:18:59.126Z,501.00
2023-04-28T02:19:59.215Z,503.00
2023-04-28T02:20:59.224Z,502.00
2023-04-28T02:21:59.293Z,503.00
2023-04-28T02:22:59.347Z,504.00
2023-04-28T02:23:59.395Z,503.00
2023-04-28T02:24:59.458Z,501.00
2023-04-28T02:25:59.519Z,506.00
2023-04-28T02:26:59.582Z,501.00
2023-04-28T02:27:59.636Z,502.00
2023-04-28T02:28:59.692Z,506.00
2023-04-28T02:29:59.767Z,506.00
2023-04-28T02:30:59.834Z,502.00
2023-04-28T02:32:00.119Z,504.00
2023-04-28T02:33:00.008Z,501.00
2023-04-28T02:33:59.994Z,502.00
2023-04-28T02:35:00.070Z,504.00
2023-04-28T02:36:00.102Z,503.00
2023-04-28T02:37:00.149Z,503.00
2023-04-28T02:38:00.207Z,502.00
2023-04-28T02:39:00.277Z,502.00
2023-04-28T02:40:00.333Z,504.00
2023-04-28T02:41:00.390Z,502.00
2023-04-28T02:42:00.450Z,500.00
2023-04-28T02:43:00.509Z,501.00
2023-04-28T02:44:00.576Z,503.00
2023-04-28T02:45:00.632Z,501.00
2023-04-28T02:46:00.687Z,505.00
2023-04-28T02:47:00.790Z,503.00
2023-04-28T02:48:00.839Z,504.00
2023-04-28T02:49:00.876Z,502.00
2023-04-28T02:50:00.915Z,504.00
2023-04-28T02:51:00.995Z,500.00
2023-04-28T02:52:01.021Z,501.00
2023-04-28T02:53:01.086Z,501.00
2023-04-28T02:54:01.148Z,500.00
2023-04-28T02:55:01.201Z,501.00
2023-04-28T02:56:01.266Z,502.00
2023-04-28T02:57:01.321Z,500.00
2023-04-28T02:58:01.374Z,501.00
2023-04-28T02:59:01.447Z,505.00
2023-04-28T03:00:01.520Z,500.00
2023-04-28T03:01:01.611Z,501.00
2023-04-28T03:02:01.631Z,504.00
2023-04-28T03:03:01.807Z,502.00
2023-04-28T03:04:02.261Z,501.00
2023-04-28T03:05:01.859Z,501.00
2023-04-28T03:06:01.885Z,501.00
2023-04-28T03:07:01.964Z,502.00
2023-04-28T03:08:02.006Z,501.00
2023-04-28T03:09:02.069Z,503.00
2023-04-28T03:10:02.149Z,502.00
2023-04-28T03:11:02.191Z,501.00
2023-04-28T03:12:02.261Z,503.00
2023-04-28T03:13:02.315Z,502.00
2023-04-28T03:14:02.385Z,504.00
2023-04-28T03:15:02.436Z,502.00
2023-04-28T03:16:02.498Z,502.00
2023-04-28T03:17:02.550Z,502.00
2023-04-28T03:18:02.666Z,502.00
2023-04-28T03:19:02.652Z,502.00
2023-04-28T03:20:02.692Z,504.00
2023-04-28T03:21:02.729Z,502.00
2023-04-28T03:22:02.782Z,501.00
2023-04-28T03:23:02.845Z,502.00
2023-04-28T03:24:05.316Z,503.00
2023-04-28T03:25:02.859Z,510.00
2023-04-28T03:26:02.854Z,508.00
2023-04-28T03:27:02.844Z,507.00
2023-04-28T03:28:02.838Z,506.00
2023-04-28T03:29:02.846Z,505.00
2023-04-28T03:30:02.832Z,504.00
2023-04-28T03:31:02.832Z,504.00
2023-04-28T03:32:02.861Z,504.00
2023-04-28T03:33:02.847Z,503.00
2023-04-28T03:34:02.800Z,501.00
2023-04-28T03:35:02.831Z,501.00
2023-04-28T03:36:02.799Z,501.00
2023-04-28T03:37:02.808Z,504.00
2023-04-28T03:38:02.851Z,502.00
2023-04-28T03:39:02.798Z,503.00
2023-04-28T03:40:02.773Z,503.00
2023-04-28T03:41:02.769Z,502.00
2023-04-28T03:42:02.754Z,502.00
2023-04-28T03:43:04.626Z,503.00
2023-04-28T03:44:02.747Z,508.00
2023-04-28T03:45:02.731Z,509.00
2023-04-28T03:46:02.824Z,505.00
2023-04-28T03:47:02.718Z,504.00
2023-04-28T03:48:02.737Z,505.00
2023-04-28T03:49:02.727Z,504.00
2023-04-28T03:50:02.690Z,500.00
2023-04-28T03:51:02.684Z,502.00
2023-04-28T03:52:02.675Z,501.00
2023-04-28T03:53:02.656Z,503.00
2023-04-28T03:54:02.658Z,504.00
2023-04-28T03:55:02.679Z,500.00
2023-04-28T03:56:02.675Z,502.00
2023-04-28T03:57:02.669Z,500.00
2023-04-28T03:58:02.646Z,503.00
2023-04-28T03:59:02.629Z,501.00
2023-04-28T04:00:02.636Z,503.00
2023-04-28T04:01:02.656Z,502.00
2023-04-28T04:02:02.661Z,501.00
2023-04-28T04:03:02.716Z,501.00
2023-04-28T04:04:02.876Z,502.00
2023-04-28T04:05:02.716Z,502.00
2023-04-28T04:06:02.565Z,500.00
2023-04-28T04:07:02.560Z,502.00
2023-04-28T04:08:02.542Z,502.00
2023-04-28T04:09:02.548Z,504.00
2023-04-28T04:10:04.376Z,502.00
2023-04-28T04:11:02.582Z,509.00
2023-04-28T04:12:02.492Z,512.00
2023-04-28T04:13:02.480Z,508.00
2023-04-28T04:14:02.473Z,506.00
2023-04-28T04:15:02.458Z,505.00
2023-04-28T04:16:02.464Z,503.00
2023-04-28T04:17:02.439Z,504.00
2023-04-28T04:18:02.503Z,504.00
2023-04-28T04:19:02.396Z,503.00
2023-04-28T04:20:02.395Z,502.00
2023-04-28T04:21:02.387Z,503.00
2023-04-28T04:22:02.367Z,504.00
2023-04-28T04:23:02.356Z,502.00
2023-04-28T04:24:02.334Z,506.00
2023-04-28T04:25:02.332Z,504.00
2023-04-28T04:26:02.309Z,500.00
2023-04-28T04:27:02.332Z,503.00
2023-04-28T04:28:02.279Z,501.00
2023-04-28T04:29:02.275Z,502.00
2023-04-28T04:30:02.304Z,503.00
2023-04-28T04:31:02.304Z,504.00
2023-04-28T04:32:02.254Z,501.00
2023-04-28T04:33:02.256Z,502.00
2023-04-28T04:34:02.223Z,501.00
2023-04-28T04:35:02.216Z,501.00
2023-04-28T04:36:02.208Z,502.00
2023-04-28T04:37:02.201Z,501.00
2023-04-28T04:38:02.217Z,503.00
2023-04-28T04:39:02.181Z,500.00
2023-04-28T04:40:02.162Z,502.00
2023-04-28T04:41:02.175Z,504.00
2023-04-28T04:42:13.259Z,505.00
2023-04-28T04:43:02.176Z,506.00
2023-04-28T04:44:02.144Z,507.00
2023-04-28T04:45:02.132Z,507.00
2023-04-28T04:46:02.131Z,507.00
2023-04-28T04:47:02.123Z,503.00
2023-04-28T04:48:02.170Z,505.00
2023-04-28T04:49:02.111Z,503.00
2023-04-28T04:50:02.129Z,501.00
2023-04-28T04:51:02.106Z,503.00
2023-04-28T04:52:02.092Z,502.00
2023-04-28T04:53:02.097Z,504.00
2023-04-28T04:54:02.068Z,502.00
2023-04-28T04:55:02.041Z,504.00
2023-04-28T04:56:02.060Z,503.00
2023-04-28T04:57:02.036Z,503.00
2023-04-28T04:58:02.021Z,504.00
2023-04-28T04:59:02.051Z,502.00
2023-04-28T05:00:01.990Z,502.00
2023-04-28T05:01:02.031Z,501.00
2023-04-28T05:02:02.027Z,503.00
2023-04-28T05:03:02.047Z,500.00
2023-04-28T05:04:02.155Z,503.00
2023-04-28T05:05:16.871Z,504.00
2023-04-28T05:06:01.935Z,505.00
2023-04-28T05:07:02.032Z,507.00
2023-04-28T05:08:01.901Z,508.00
2023-04-28T05:09:01.903Z,507.00
2023-04-28T05:10:01.903Z,508.00
2023-04-28T05:11:01.866Z,504.00
2023-04-28T05:12:02.051Z,501.00
2023-04-28T05:13:01.842Z,502.00
2023-04-28T05:14:01.837Z,499.00
2023-04-28T05:15:01.860Z,502.00
2023-04-28T05:16:01.857Z,500.00
2023-04-28T05:17:01.817Z,502.00
2023-04-28T05:18:01.808Z,503.00
2023-04-28T05:19:01.776Z,503.00
2023-04-28T05:20:01.759Z,504.00
2023-04-28T05:21:01.778Z,507.00
2023-04-28T05:22:02.060Z,513.00
2023-04-28T05:23:01.727Z,515.00
2023-04-28T05:24:02.049Z,515.00
2023-04-28T05:25:01.704Z,517.00
2023-04-28T05:26:01.694Z,516.00
2023-04-28T05:27:01.699Z,520.00
2023-04-28T05:28:02.047Z,520.00
2023-04-28T05:29:02.045Z,527.00
2023-04-28T05:30:01.648Z,531.00
2023-04-28T05:31:01.660Z,537.00
2023-04-28T05:32:01.686Z,535.00
2023-04-28T05:33:01.703Z,541.00
2023-04-28T05:34:02.053Z,540.00
2023-04-28T05:35:01.615Z,536.00
2023-04-28T05:36:01.631Z,544.00
2023-04-28T05:37:01.594Z,545.00
2023-04-28T05:38:01.611Z,543.00
2023-04-28T05:39:02.482Z,546.00
2023-04-28T05:40:01.620Z,546.00
2023-04-28T05:41:01.589Z,544.00
2023-04-28T05:42:02.089Z,550.00
2023-04-28T05:43:01.586Z,541.00
2023-04-28T05:44:01.614Z,546.00
2023-04-28T05:45:02.090Z,551.00
2023-04-28T05:46:01.732Z,560.00
2023-04-28T05:47:02.150Z,561.00
2023-04-28T05:48:01.807Z,625.00
2023-04-28T05:49:01.834Z,612.00
2023-04-28T05:50:02.055Z,604.00
2023-04-28T05:51:02.012Z,607.00
2023-04-28T05:52:03.491Z,606.00
2023-04-28T05:53:02.148Z,615.00
2023-04-28T05:54:05.402Z,630.00
2023-04-28T05:55:03.156Z,631.00
2023-04-28T05:56:02.161Z,634.00
2023-04-28T05:57:02.589Z,638.00
2023-04-28T05:58:02.148Z,647.00
2023-04-28T05:59:02.575Z,664.00
2023-04-28T06:00:17.757Z,676.00
2023-04-28T06:01:05.301Z,678.00
2023-04-28T06:02:05.312Z,679.00
2023-04-28T06:03:02.396Z,680.00
2023-04-28T06:04:06.216Z,688.00
2023-04-28T06:05:02.412Z,681.00
2023-04-28T06:06:08.873Z,696.00
2023-04-28T06:07:02.065Z,682.00
2023-04-28T06:08:02.070Z,701.00
2023-04-28T06:09:01.988Z,724.00
2023-04-28T06:10:02.567Z,767.00
2023-04-28T06:11:02.567Z,832.00
2023-04-28T06:12:02.595Z,830.00
2023-04-28T06:13:02.643Z,829.00
2023-04-28T06:14:02.009Z,837.00
2023-04-28T06:15:03.004Z,839.00
2023-04-28T06:16:02.151Z,878.00
2023-04-28T06:17:02.132Z,867.00
2023-04-28T06:18:02.768Z,867.00
2023-04-28T06:19:02.033Z,870.00
2023-04-28T06:20:01.774Z,853.00
2023-04-28T06:21:02.118Z,840.00
2023-04-28T06:22:02.080Z,866.00
2023-04-28T06:23:02.067Z,861.00
2023-04-28T06:24:02.202Z,870.00
2023-04-28T06:25:01.829Z,851.00
2023-04-28T06:26:01.881Z,862.00
2023-04-28T06:27:02.078Z,861.00
2023-04-28T06:28:02.072Z,864.00
2023-04-28T06:29:02.010Z,870.00
2023-04-28T06:30:02.068Z,867.00
2023-04-28T06:31:02.495Z,868.00
2023-04-28T06:32:04.566Z,877.00
2023-04-28T06:33:02.207Z,869.00
2023-04-28T06:34:03.109Z,869.00
2023-04-28T06:35:02.087Z,873.00
2023-04-28T06:36:02.076Z,862.00
2023-04-28T06:37:02.044Z,865.00
2023-04-28T06:38:02.026Z,859.00
2023-04-28T06:39:02.505Z,858.00
2023-04-28T06:40:01.985Z,863.00
2023-04-28T06:41:01.991Z,874.00
2023-04-28T06:42:02.083Z,856.00
2023-04-28T06:43:01.925Z,847.00
2023-04-28T06:44:02.010Z,852.00
2023-04-28T06:45:01.995Z,859.00
2023-04-28T06:46:03.042Z,839.00
2023-04-28T06:47:02.170Z,843.00
2023-04-28T06:48:02.639Z,843.00
2023-04-28T06:49:02.152Z,855.00
2023-04-28T06:50:02.222Z,848.00
2023-04-28T06:51:02.272Z,848.00
2023-04-28T06:52:02.212Z,841.00
2023-04-28T06:53:02.572Z,776.00
2023-04-28T06:54:02.275Z,803.00
2023-04-28T06:55:02.295Z,759.00
2023-04-28T06:56:02.344Z,761.00
2023-04-28T06:57:02.364Z,744.00
2023-04-28T06:58:02.597Z,730.00
2023-04-28T06:59:02.438Z,732.00
2023-04-28T07:00:02.448Z,699.00
2023-04-28T07:01:02.503Z,701.00
2023-04-28T07:02:02.621Z,689.00
2023-04-28T07:03:02.772Z,711.00
2023-04-28T07:04:02.624Z,715.00
2023-04-28T07:05:05.823Z,685.00
2023-04-28T07:06:02.555Z,685.00
2023-04-28T07:07:02.533Z,649.00
2023-04-28T07:08:13.412Z,648.00
2023-04-28T07:09:02.541Z,687.00
2023-04-28T07:10:02.492Z,690.00
2023-04-28T07:11:02.587Z,690.00
2023-04-28T07:12:02.641Z,664.00
2023-04-28T07:13:02.588Z,652.00
2023-04-28T07:14:02.395Z,638.00
2023-04-28T07:15:02.352Z,624.00
2023-04-28T07:16:02.373Z,621.00
2023-04-28T07:17:02.314Z,631.00
2023-04-28T07:18:02.625Z,645.00
2023-04-28T07:19:02.285Z,653.00
2023-04-28T07:20:02.260Z,660.00
2023-04-28T07:21:03.949Z,654.00
2023-04-28T07:22:02.560Z,654.00
2023-04-28T07:23:02.589Z,657.00
2023-04-28T07:24:02.225Z,654.00
2023-04-28T07:25:02.596Z,649.00
2023-04-28T07:26:02.140Z,643.00
2023-04-28T07:27:02.586Z,644.00
2023-04-28T07:28:02.597Z,643.00
2023-04-28T07:29:02.104Z,641.00
2023-04-28T07:30:06.572Z,640.00
2023-04-28T07:31:02.040Z,641.00
2023-04-28T07:32:02.198Z,646.00
2023-04-28T07:33:02.143Z,651.00
2023-04-28T07:34:01.978Z,663.00
2023-04-28T07:35:02.588Z,703.00
2023-04-28T07:36:02.105Z,676.00
2023-04-28T07:37:01.947Z,670.00
2023-04-28T07:38:01.911Z,723.00
2023-04-28T07:39:01.894Z,719.00
2023-04-28T07:40:02.866Z,745.00
2023-04-28T07:41:02.101Z,749.00
2023-04-28T07:42:02.091Z,760.00
2023-04-28T07:43:02.096Z,654.00
2023-04-28T07:44:01.782Z,645.00
2023-04-28T07:45:01.775Z,623.00
2023-04-28T07:46:01.855Z,598.00
2023-04-28T07:47:01.731Z,560.00
2023-04-28T07:48:02.279Z,569.00
2023-04-28T07:49:01.699Z,557.00
2023-04-28T07:50:02.092Z,576.00
2023-04-28T07:51:01.729Z,578.00
2023-04-28T07:52:03.110Z,584.00
2023-04-28T07:53:02.496Z,578.00
2023-04-28T07:54:01.891Z,580.00
2023-04-28T07:55:01.939Z,561.00
2023-04-28T07:56:01.944Z,535.00
2023-04-28T07:57:02.137Z,500.00
2023-04-28T07:58:02.037Z,508.00
2023-04-28T07:59:02.098Z,521.00
2023-04-28T08:00:02.148Z,527.00
2023-04-28T08:01:02.184Z,510.00
2023-04-28T08:02:02.730Z,518.00
2023-04-28T08:03:02.359Z,523.00
2023-04-28T08:04:02.552Z,529.00
2023-04-28T08:05:02.569Z,536.00
2023-04-28T08:06:03.254Z,521.00
2023-04-28T08:07:02.450Z,509.00
2023-04-28T08:08:02.425Z,508.00
2023-04-28T08:09:02.458Z,503.00
2023-04-28T08:10:02.438Z,500.00
2023-04-28T08:11:02.447Z,490.00
2023-04-28T08:12:02.607Z,516.00
2023-04-28T08:13:02.603Z,500.00
2023-04-28T08:14:02.581Z,510.00
2023-04-28T08:15:02.783Z,500.00
2023-04-28T08:16:02.695Z,500.00
2023-04-28T08:17:02.670Z,519.00
2023-04-28T08:18:02.766Z,500.00
2023-04-28T08:19:02.805Z,526.00
2023-04-28T08:20:02.791Z,540.00
2023-04-28T08:21:02.838Z,547.00
2023-04-28T08:22:03.107Z,525.00
2023-04-28T08:23:02.917Z,517.00
2023-04-28T08:24:02.976Z,508.00
2023-04-28T08:25:03.049Z,524.00
2023-04-28T08:26:03.072Z,528.00
2023-04-28T08:27:03.617Z,523.00
2023-04-28T08:28:03.619Z,539.00
2023-04-28T08:29:03.232Z,531.00
2023-04-28T08:30:03.612Z,546.00
2023-04-28T08:31:03.339Z,552.00
2023-04-28T08:32:03.360Z,550.00
2023-04-28T08:33:03.648Z,523.00
2023-04-28T08:34:03.634Z,516.00
2023-04-28T08:35:03.498Z,515.00
2023-04-28T08:36:03.551Z,530.00
2023-04-28T08:37:03.622Z,538.00
2023-04-28T08:38:03.649Z,545.00
2023-04-28T08:39:04.418Z,536.00
2023-04-28T08:40:03.740Z,491.00
2023-04-28T08:41:03.812Z,485.00
2023-04-28T08:42:03.885Z,521.00
2023-04-28T08:43:04.140Z,565.00
2023-04-28T08:45:04.019Z,609.00
2023-04-28T08:46:04.051Z,610.00
2023-04-28T08:47:05.028Z,624.00
2023-04-28T08:48:04.123Z,654.00
2023-04-28T08:49:04.049Z,786.00
2023-04-28T08:50:04.023Z,912.00
2023-04-28T08:51:04.025Z,907.00
2023-04-28T08:52:04.066Z,963.00
2023-04-28T08:53:04.134Z,994.00
2023-04-28T08:54:24.801Z,978.00
2023-04-28T08:55:04.069Z,937.00
2023-04-28T08:56:03.995Z,800.00
2023-04-28T08:57:04.065Z,766.00
2023-04-28T08:58:03.991Z,735.00
2023-04-28T08:59:03.951Z,676.00
2023-04-28T09:00:03.952Z,666.00
2023-04-28T09:01:03.950Z,664.00
2023-04-28T09:02:04.246Z,664.00
2023-04-28T09:03:04.240Z,654.00
2023-04-28T09:04:04.345Z,649.00
2023-04-28T09:05:04.269Z,630.00
2023-04-28T09:06:03.904Z,620.00
2023-04-28T09:07:03.909Z,611.00
2023-04-28T09:08:04.221Z,595.00
2023-04-28T09:09:04.236Z,600.00
2023-04-28T09:10:04.831Z,608.00
2023-04-28T09:11:03.922Z,597.00
2023-04-28T09:12:04.088Z,591.00
2023-04-28T09:13:04.316Z,593.00
2023-04-28T09:14:04.057Z,580.00
2023-04-28T09:15:04.060Z,588.00
2023-04-28T09:16:03.915Z,563.00
2023-04-28T09:17:04.009Z,571.00
2023-04-28T09:18:04.505Z,559.00
2023-04-28T09:19:03.998Z,569.00
2023-04-28T09:20:03.942Z,554.00
2023-04-28T09:21:04.028Z,550.00
2023-04-28T09:22:13.784Z,533.00
2023-04-28T09:23:04.215Z,534.00
2023-04-28T09:24:03.997Z,533.00
2023-04-28T09:25:04.000Z,526.00
2023-04-28T09:26:03.975Z,512.00
2023-04-28T09:27:03.963Z,511.00
2023-04-28T09:28:04.311Z,496.00
2023-04-28T09:29:04.023Z,503.00
2023-04-28T09:30:03.901Z,513.00
2023-04-28T09:31:03.778Z,506.00
2023-04-28T09:32:03.784Z,499.00
2023-04-28T09:33:04.193Z,505.00
2023-04-28T09:34:03.717Z,503.00
2023-04-28T09:35:03.721Z,504.00
2023-04-28T09:36:03.723Z,500.00
2023-04-28T09:37:03.693Z,500.00
2023-04-28T09:38:04.145Z,506.00
2023-04-28T09:39:03.657Z,500.00
2023-04-28T09:40:03.662Z,506.00
2023-04-28T09:41:03.653Z,500.00
2023-04-28T09:42:03.663Z,500.00
2023-04-28T09:43:15.082Z,500.00
2023-04-28T09:44:03.594Z,477.00
2023-04-28T09:45:03.613Z,443.00
2023-04-28T09:46:03.655Z,407.00
2023-04-28T09:47:03.643Z,400.00
2023-04-28T09:48:03.691Z,400.00
2023-04-28T09:49:03.554Z,400.00
2023-04-28T09:50:04.666Z,471.00
2023-04-28T09:51:03.568Z,505.00
2023-04-28T09:52:03.894Z,523.00
2023-04-28T09:53:03.816Z,540.00
2023-04-28T09:54:03.504Z,557.00
2023-04-28T09:55:03.480Z,559.00
2023-04-28T09:56:03.604Z,553.00
2023-04-28T09:57:03.980Z,547.00
2023-04-28T09:58:03.639Z,553.00
2023-04-28T09:59:03.629Z,551.00
2023-04-28T10:00:03.682Z,553.00
2023-04-28T10:01:03.802Z,552.00
2023-04-28T10:02:12.756Z,564.00
2023-04-28T10:03:03.885Z,565.00
2023-04-28T10:04:04.283Z,565.00
2023-04-28T10:05:04.220Z,567.00
2023-04-28T10:06:03.743Z,568.00
2023-04-28T10:07:03.757Z,558.00
2023-04-28T10:08:03.738Z,549.00
2023-04-28T10:09:04.145Z,538.00
2023-04-28T10:10:03.718Z,541.00
2023-04-28T10:11:03.695Z,562.00
2023-04-28T10:12:03.677Z,564.00
2023-04-28T10:13:03.685Z,581.00
2023-04-28T10:14:03.650Z,580.00
2023-04-28T10:15:03.637Z,590.00
2023-04-28T10:16:03.729Z,585.00
2023-04-28T10:17:03.686Z,585.00
2023-04-28T10:18:03.643Z,582.00
2023-04-28T10:19:03.668Z,599.00
2023-04-28T10:20:03.676Z,585.00
2023-04-28T10:21:03.809Z,588.00
2023-04-28T10:22:03.752Z,613.00
2023-04-28T10:23:04.158Z,612.00
2023-04-28T10:24:04.171Z,602.00
2023-04-28T10:25:03.912Z,604.00
2023-04-28T10:26:03.970Z,611.00
2023-04-28T10:27:04.008Z,595.00
2023-04-28T10:28:04.148Z,580.00
2023-04-28T10:29:04.104Z,608.00
2023-04-28T10:30:10.505Z,592.00
2023-04-28T10:31:04.204Z,592.00
2023-04-28T10:32:04.123Z,595.00
2023-04-28T10:33:04.249Z,592.00
2023-04-28T10:34:04.656Z,594.00
2023-04-28T10:35:04.106Z,596.00
2023-04-28T10:36:04.104Z,574.00
2023-04-28T10:37:04.075Z,569.00
2023-04-28T10:38:04.159Z,581.00
2023-04-28T10:39:04.058Z,574.00
2023-04-28T10:40:06.194Z,586.00
2023-04-28T10:41:04.156Z,586.00
2023-04-28T10:42:04.027Z,588.00
2023-04-28T10:43:04.022Z,579.00
2023-04-28T10:44:04.027Z,576.00
2023-04-28T10:45:04.034Z,573.00
2023-04-28T10:46:04.150Z,560.00
2023-04-28T10:47:04.280Z,552.00
2023-04-28T10:48:04.005Z,543.00
2023-04-28T10:49:04.216Z,551.00
2023-04-28T10:50:03.955Z,547.00
2023-04-28T10:51:04.160Z,557.00
2023-04-28T10:52:04.022Z,554.00
2023-04-28T10:53:04.166Z,566.00
2023-04-28T10:54:04.106Z,552.00
2023-04-28T10:55:12.688Z,546.00
2023-04-28T10:56:04.171Z,546.00
2023-04-28T10:57:04.140Z,546.00
2023-04-28T10:58:04.187Z,545.00
2023-04-28T10:59:04.166Z,536.00
2023-04-28T11:00:04.087Z,546.00
2023-04-28T11:01:04.076Z,551.00
2023-04-28T11:02:04.184Z,545.00
2023-04-28T11:03:04.133Z,545.00
2023-04-28T11:04:04.649Z,573.00
2023-04-28T11:05:04.413Z,560.00
2023-04-28T11:06:04.063Z,550.00
2023-04-28T11:07:04.034Z,560.00
2023-04-28T11:08:04.005Z,554.00
2023-04-28T11:09:03.999Z,561.00
2023-04-28T11:10:04.167Z,554.00
2023-04-28T11:11:03.986Z,535.00
2023-04-28T11:12:04.170Z,527.00
2023-04-28T11:13:04.065Z,533.00
2023-04-28T11:14:04.116Z,557.00
2023-04-28T11:15:04.189Z,579.00
2023-04-28T11:16:04.245Z,587.00
2023-04-28T11:17:04.675Z,592.00
2023-04-28T11:18:04.358Z,630.00
2023-04-28T11:19:04.369Z,673.00
2023-04-28T11:20:04.673Z,718.00
2023-04-28T11:21:04.471Z,776.00
2023-04-28T11:22:04.502Z,757.00
2023-04-28T11:23:04.532Z,767.00
2023-04-28T11:24:04.667Z,785.00
2023-04-28T11:25:04.611Z,774.00
2023-04-28T11:26:04.642Z,742.00
2023-04-28T11:27:04.684Z,713.00
2023-04-28T11:28:04.718Z,784.00
2023-04-28T11:29:04.752Z,853.00
2023-04-28T11:30:04.798Z,824.00
2023-04-28T11:31:05.173Z,766.00
2023-04-28T11:32:05.013Z,809.00
2023-04-28T11:33:04.955Z,821.00
2023-04-28T11:34:04.965Z,835.00
2023-04-28T11:35:05.095Z,849.00
2023-04-28T11:36:05.014Z,758.00
2023-04-28T11:37:05.059Z,803.00
2023-04-28T11:38:05.055Z,795.00
2023-04-28T11:39:05.180Z,836.00
2023-04-28T11:40:05.118Z,845.00
2023-04-28T11:41:05.139Z,888.00
2023-04-28T11:42:05.157Z,879.00
2023-04-28T11:43:05.186Z,908.00
2023-04-28T11:44:05.206Z,854.00
2023-04-28T11:45:05.964Z,798.00
2023-04-28T11:46:05.302Z,940.00
2023-04-28T11:47:05.832Z,943.00
2023-04-28T11:48:05.365Z,903.00
2023-04-28T11:49:05.335Z,980.00
2023-04-28T11:50:05.353Z,926.00
2023-04-28T11:51:05.364Z,1021.00
2023-04-28T11:52:05.392Z,997.00
2023-04-28T11:53:05.441Z,1032.00
2023-04-28T11:54:05.440Z,1075.00
2023-04-28T11:55:05.471Z,1046.00
2023-04-28T11:56:05.475Z,1136.00
2023-04-28T11:57:05.518Z,1189.00
2023-04-28T11:58:05.532Z,1140.00
2023-04-28T11:59:05.557Z,1179.00
2023-04-28T12:00:06.580Z,1178.00
2023-04-28T12:01:05.572Z,1208.00
2023-04-28T12:02:05.591Z,1198.00
2023-04-28T12:03:05.651Z,1194.00
2023-04-28T12:04:05.638Z,1225.00
2023-04-28T12:05:05.617Z,1148.00
2023-04-28T12:06:05.513Z,1152.00
2023-04-28T12:07:05.513Z,1175.00
2023-04-28T12:08:05.489Z,1165.00
2023-04-28T12:09:05.712Z,1166.00
2023-04-28T12:10:05.491Z,1202.00
2023-04-28T12:11:05.459Z,1231.00
2023-04-28T12:12:05.446Z,1165.00
2023-04-28T12:13:05.429Z,1131.00
2023-04-28T12:14:05.705Z,1142.00
2023-04-28T12:15:05.401Z,1167.00
2023-04-28T12:16:05.444Z,1213.00
2023-04-28T12:17:05.392Z,1211.00
2023-04-28T12:18:05.410Z,1211.00
2023-04-28T12:19:05.355Z,1233.00
2023-04-28T12:20:05.347Z,1217.00
2023-04-28T12:21:05.351Z,1226.00
2023-04-28T12:22:05.341Z,1196.00
2023-04-28T12:23:05.360Z,1318.00
2023-04-28T12:24:05.306Z,1400.00
2023-04-28T12:25:05.322Z,1404.00
2023-04-28T12:26:05.287Z,1410.00
2023-04-28T12:27:05.275Z,1433.00
2023-04-28T12:28:05.274Z,1426.00
2023-04-28T12:29:05.698Z,1418.00